Time;durP1;ratioP1;P1;durP2;ratioP2;P2;SDS_P1;SDS_P2;PMS_P1;PMS_P2;Temp;Humidity;BMP_temperature;BMP_pressure;BME280_temperature;BME280_humidity;BME280_pressure;Samples;Min_cycle;Max_cycle;Signal;HPM_P1;HPM_P2
2022/09/02 00:02:12;;;;;;;12.55;8.68;;;;;;;25.01;72.02;99300.34;5070300;28;20020;-44
2022/09/02 00:04:37;;;;;;;14.82;9.15;;;;;;;24.39;74.43;99304.47;5070288;28;20028;-44
2022/09/02 00:07:03;;;;;;;14.35;9.18;;;;;;;24.47;74.46;99294.78;5070213;28;20020;-44
2022/09/02 00:09:29;;;;;;;19.42;9.68;;;;;;;24.37;74.62;99295.81;5063001;28;20033;-43
2022/09/02 00:11:55;;;;;;;13.05;9.20;;;;;;;24.48;74.51;99305.34;5050180;28;20367;-44
2022/09/02 00:14:30;;;;;;;16.00;9.43;;;;;;;24.52;73.82;99302.84;5050286;28;20110;-43
2022/09/02 00:16:59;;;;;;;13.77;9.65;;;;;;;24.53;73.47;99288.94;5050369;28;20048;-44
2022/09/02 00:19:26;;;;;;;10.88;8.93;;;;;;;24.43;74.08;99299.22;5050439;28;20485;-45
2022/09/02 00:21:55;;;;;;;12.73;9.23;;;;;;;24.32;74.14;99288.56;5050131;28;20037;-44
2022/09/02 00:24:21;;;;;;;13.88;9.02;;;;;;;24.39;73.74;99297.13;5050321;28;20035;-43
2022/09/02 00:26:47;;;;;;;13.13;9.85;;;;;;;24.47;73.28;99295.59;5050437;28;20025;-44
2022/09/02 00:29:14;;;;;;;12.43;9.35;;;;;;;24.46;73.19;99296.69;5049896;28;20412;-44
2022/09/02 00:31:41;;;;;;;13.55;9.27;;;;;;;24.42;73.05;99301.13;5049670;28;20545;-44
2022/09/02 00:34:07;;;;;;;15.20;8.98;;;;;;;24.40;73.23;99297.91;5049788;28;20060;-43
2022/09/02 00:36:33;;;;;;;14.38;8.88;;;;;;;24.32;73.50;99295.94;5054641;28;20451;-45
2022/09/02 00:38:58;;;;;;;10.50;8.32;;;;;;;24.11;74.30;99293.66;5070066;28;20492;-44
2022/09/02 00:41:26;;;;;;;13.07;9.02;;;;;;;24.36;73.53;99296.91;5070003;28;20024;-43
2022/09/02 00:43:58;;;;;;;14.48;8.82;;;;;;;24.40;73.39;99301.44;5069817;28;20063;-43
2022/09/02 00:46:26;;;;;;;12.48;8.48;;;;;;;24.30;73.68;99295.44;5069867;28;20063;-44
2022/09/02 00:48:59;;;;;;;15.93;8.75;;;;;;;24.38;73.75;99291.97;5069844;28;20036;-43
2022/09/02 00:51:27;;;;;;;11.20;8.57;;;;;;;24.51;73.22;99293.06;5069987;28;20024;-42
2022/09/02 00:53:52;;;;;;;13.20;8.80;;;;;;;24.60;72.85;99291.25;5069500;28;20028;-44
2022/09/02 00:56:22;;;;;;;11.90;8.55;;;;;;;24.61;73.12;99294.78;5070040;28;20396;-44
2022/09/02 00:58:50;;;;;;;11.43;8.82;;;;;;;24.40;74.04;99301.44;5069748;28;20028;-44
2022/09/02 01:01:16;;;;;;;11.48;8.73;;;;;;;24.39;74.21;99294.41;5069596;28;20028;-44
2022/09/02 01:03:42;;;;;;;14.60;8.82;;;;;;;24.27;75.20;99296.84;5069749;28;20043;-43
2022/09/02 01:06:14;;;;;;;14.32;9.02;;;;;;;24.43;74.78;99291.06;5069667;28;20032;-47
2022/09/02 01:08:44;;;;;;;15.45;8.80;;;;;;;24.34;75.09;99288.28;5068713;28;20117;-45
2022/09/02 01:11:11;;;;;;;13.20;8.00;;;;;;;24.41;75.74;99296.81;5049714;28;20071;-45
2022/09/02 01:13:40;;;;;;;11.82;8.45;;;;;;;24.06;78.36;99290.22;5050218;28;20032;-43
2022/09/02 01:16:17;;;;;;;13.75;8.90;;;;;;;24.19;78.49;99292.91;5050185;28;20028;-46
2022/09/02 01:18:48;;;;;;;13.32;9.60;;;;;;;24.25;78.49;99295.53;5050012;28;20025;-47
2022/09/02 01:21:14;;;;;;;11.68;8.52;;;;;;;24.25;79.05;99293.63;5050124;28;20067;-44
2022/09/02 01:23:39;;;;;;;12.45;9.02;;;;;;;23.97;80.20;99262.94;5049936;28;20049;-44
2022/09/02 01:26:06;;;;;;;10.90;8.85;;;;;;;24.22;79.94;99293.41;5049581;28;20021;-44
2022/09/02 01:28:33;;;;;;;12.85;8.77;;;;;;;24.28;79.60;99289.50;5049894;28;20086;-43
2022/09/02 01:30:59;;;;;;;14.32;9.18;;;;;;;24.52;78.70;99294.69;5050037;28;20033;-43
2022/09/02 01:33:24;;;;;;;11.00;8.60;;;;;;;24.36;79.22;99292.28;5049570;28;20111;-44
2022/09/02 01:35:51;;;;;;;15.13;8.57;;;;;;;23.80;81.86;99288.84;5049851;28;20067;-43
2022/09/02 01:38:17;;;;;;;14.88;9.20;;;;;;;23.88;81.61;99281.91;5067633;28;20400;-43
2022/09/02 01:40:43;;;;;;;12.93;8.60;;;;;;;23.95;81.11;99286.91;5069544;28;20499;-46
2022/09/02 01:43:16;;;;;;;13.73;8.57;;;;;;;23.88;81.01;99294.69;5073760;28;20103;-45
2022/09/02 01:45:44;;;;;;;12.57;9.00;;;;;;;23.75;81.85;99286.19;5074195;28;20024;-43
2022/09/02 01:48:11;;;;;;;12.18;8.57;;;;;;;23.87;80.37;99293.84;5073346;28;20093;-44
2022/09/02 01:50:38;;;;;;;13.65;8.50;;;;;;;23.69;80.96;99286.59;5074045;28;20113;-44
2022/09/02 01:53:04;;;;;;;10.85;7.97;;;;;;;23.90;79.94;99284.31;5074271;28;20119;-44
2022/09/02 01:55:31;;;;;;;11.07;8.38;;;;;;;23.66;81.09;99290.72;5073856;28;20519;-44
2022/09/02 01:57:57;;;;;;;12.23;8.00;;;;;;;23.52;81.44;99281.78;5073149;28;20580;-46
2022/09/02 02:00:23;;;;;;;11.98;8.55;;;;;;;23.45;81.90;99282.16;5073576;28;20104;-44
2022/09/02 02:02:49;;;;;;;11.95;8.10;;;;;;;23.33;82.28;99288.06;5073406;28;20025;-44
2022/09/02 02:05:15;;;;;;;13.02;8.80;;;;;;;23.32;82.35;99291.91;5073376;28;20377;-43
2022/09/02 02:07:44;;;;;;;12.50;8.10;;;;;;;23.45;81.69;99289.50;5073054;28;20103;-44
2022/09/02 02:10:12;;;;;;;12.40;8.45;;;;;;;23.48;81.62;99280.75;5059646;28;20031;-45
2022/09/02 02:12:38;;;;;;;11.77;8.68;;;;;;;23.45;81.91;99289.50;5052701;28;20493;-44
2022/09/02 02:15:09;;;;;;;14.73;8.88;;;;;;;23.72;80.58;99286.00;5053241;28;20029;-43
2022/09/02 02:17:35;;;;;;;12.07;9.27;;;;;;;23.72;80.30;99294.97;5052626;28;20056;-44
2022/09/02 02:20:01;;;;;;;13.30;8.32;;;;;;;23.73;80.00;99290.31;5053297;28;20035;-43
2022/09/02 02:22:26;;;;;;;12.30;8.45;;;;;;;23.85;79.60;99300.72;5053201;28;20021;-44
2022/09/02 02:24:53;;;;;;;13.63;9.30;;;;;;;23.50;81.46;99292.13;5053496;28;20059;-44
2022/09/02 02:27:19;;;;;;;13.05;8.88;;;;;;;23.64;80.55;99295.66;5053263;28;20032;-44
2022/09/02 02:29:45;;;;;;;13.55;8.63;;;;;;;23.66;80.34;99279.84;5053163;28;20021;-44
2022/09/02 02:32:11;;;;;;;16.08;8.73;;;;;;;23.56;80.81;99286.28;5052989;28;20372;-43
2022/09/02 02:34:37;;;;;;;11.63;8.05;;;;;;;23.22;82.75;99289.34;5052999;28;20094;-43
2022/09/02 02:37:02;;;;;;;11.32;7.90;;;;;;;23.16;82.95;99287.84;5061171;28;20036;-43
2022/09/02 02:39:28;;;;;;;9.35;8.05;;;;;;;23.07;83.69;99281.47;5072658;28;20025;-44
2022/09/02 02:41:53;;;;;;;10.27;8.05;;;;;;;23.20;82.70;99265.22;5072818;28;20109;-44
2022/09/02 02:44:18;;;;;;;12.48;8.30;;;;;;;23.53;81.36;99275.22;5073005;28;20031;-46
2022/09/02 02:46:44;;;;;;;10.35;8.18;;;;;;;23.64;80.44;99306.50;5073001;28;20062;-43
2022/09/02 02:49:09;;;;;;;12.55;8.75;;;;;;;23.62;80.61;99274.22;5072893;28;20032;-44
2022/09/02 02:51:35;;;;;;;11.77;7.93;;;;;;;23.61;80.32;99271.81;5072548;28;20035;-46
2022/09/02 02:54:01;;;;;;;13.18;8.02;;;;;;;23.39;81.61;99275.22;5071891;28;20329;-45
2022/09/02 02:56:29;;;;;;;10.15;7.78;;;;;;;23.48;81.42;99276.13;5072842;28;20103;-44
2022/09/02 02:58:56;;;;;;;12.10;8.48;;;;;;;23.25;81.94;99286.06;5072604;28;20103;-44
2022/09/02 03:01:22;;;;;;;11.98;7.57;;;;;;;23.25;82.47;99283.34;5072546;28;20024;-44
2022/09/02 03:03:47;;;;;;;9.45;7.50;;;;;;;23.36;82.09;99271.19;5072284;28;20038;-44
2022/09/02 03:06:13;;;;;;;13.05;7.85;;;;;;;23.29;82.47;99272.69;5073028;28;20032;-44
2022/09/02 03:08:39;;;;;;;12.82;8.10;;;;;;;23.42;81.54;99271.91;5071830;28;20490;-43
2022/09/02 03:11:05;;;;;;;10.23;7.93;;;;;;;23.22;82.29;99275.78;5051923;28;20021;-43
2022/09/02 03:13:32;;;;;;;12.90;7.65;;;;;;;23.51;81.15;99280.16;5051786;28;20025;-44
2022/09/02 03:15:58;;;;;;;12.50;8.02;;;;;;;23.45;81.02;99281.34;5052391;28;20044;-43
2022/09/02 03:18:23;;;;;;;11.30;7.63;;;;;;;23.12;82.80;99306.63;5051941;28;20057;-44
2022/09/02 03:20:49;;;;;;;11.43;7.90;;;;;;;23.12;83.11;99281.41;5052229;28;20471;-43
2022/09/02 03:23:17;;;;;;;9.85;8.48;;;;;;;23.03;83.34;99281.25;5052125;28;20121;-43
2022/09/02 03:25:44;;;;;;;11.20;8.48;;;;;;;23.02;83.45;99280.44;5052157;28;20033;-43
2022/09/02 03:28:10;;;;;;;13.15;8.88;;;;;;;22.92;84.24;99283.31;5052081;28;20044;-43
2022/09/02 03:30:37;;;;;;;12.15;8.70;;;;;;;23.10;83.55;99289.03;5052253;28;20033;-43
2022/09/02 03:33:04;;;;;;;13.98;8.38;;;;;;;23.17;82.52;99284.84;5052024;28;20082;-43
2022/09/02 03:35:31;;;;;;;16.65;12.45;;;;;;;22.86;84.37;99287.22;5051876;28;20027;-43
2022/09/02 03:37:57;;;;;;;13.30;9.40;;;;;;;22.82;84.92;99291.63;5067845;28;20118;-43
2022/09/02 03:40:25;;;;;;;46.60;33.15;;;;;;;22.96;84.07;99275.38;5071676;28;20039;-43
2022/09/02 03:42:51;;;;;;;13.75;8.88;;;;;;;22.89;84.68;99283.13;5071925;28;20188;-43
2022/09/02 03:45:17;;;;;;;14.75;8.60;;;;;;;22.95;84.01;99290.84;5071400;28;20024;-43
2022/09/02 03:47:49;;;;;;;14.05;8.50;;;;;;;22.91;84.36;99289.84;5071687;28;20453;-43
2022/09/02 03:50:19;;;;;;;13.43;8.40;;;;;;;23.03;83.52;99282.06;5071781;28;20028;-42
2022/09/02 03:52:45;;;;;;;13.77;8.18;;;;;;;23.09;83.06;99285.50;5071705;28;20078;-43
2022/09/02 03:55:11;;;;;;;11.32;7.90;;;;;;;23.39;81.77;99291.50;5071214;28;20020;-41
2022/09/02 03:57:36;;;;;;;15.68;7.82;;;;;;;23.36;81.15;99294.81;5071338;28;20108;-43
2022/09/02 04:00:06;;;;;;;11.15;7.97;;;;;;;23.34;81.54;99297.84;5070819;28;20095;-44
2022/09/02 04:02:32;;;;;;;10.05;6.72;;;;;;;23.18;69.58;99291.06;5069897;28;20459;-43
2022/09/02 04:04:57;;;;;;;11.70;7.72;;;;;;;23.41;80.51;99298.22;5071392;28;20100;-44
2022/09/02 04:07:23;;;;;;;21.95;16.55;;;;;;;23.23;81.70;99301.84;5070712;28;20441;-43
2022/09/02 04:09:48;;;;;;;12.20;8.27;;;;;;;23.17;82.25;99300.28;5060884;28;20028;-44
2022/09/02 04:12:14;;;;;;;12.80;7.60;;;;;;;23.08;82.62;99299.38;5051455;28;20016;-45
2022/09/02 04:14:40;;;;;;;13.00;8.00;;;;;;;23.20;81.95;99311.34;5050286;28;20032;-46
2022/09/02 04:17:06;;;;;;;12.10;8.35;;;;;;;23.34;81.07;99308.69;5050170;28;20104;-44
2022/09/02 04:19:31;;;;;;;11.88;8.38;;;;;;;23.48;80.41;99303.28;5045913;28;20656;-45
2022/09/02 04:21:57;;;;;;;11.25;7.90;;;;;;;23.09;82.12;99315.34;5030283;28;20441;-43
2022/09/02 04:24:23;;;;;;;12.50;7.97;;;;;;;23.15;81.89;99300.63;5029971;28;20017;-44
2022/09/02 04:26:49;;;;;;;12.07;7.47;;;;;;;23.47;80.03;99307.09;5030395;28;20504;-45
2022/09/02 04:29:14;;;;;;;11.50;7.88;;;;;;;23.42;80.34;99302.56;5029721;28;20029;-47
2022/09/02 04:31:40;;;;;;;9.57;7.60;;;;;;;23.35;80.97;99313.00;5045517;28;20460;-44
2022/09/02 04:34:06;;;;;;;12.27;7.97;;;;;;;23.40;80.58;99315.63;5043650;28;20029;-44
2022/09/02 04:36:31;;;;;;;13.15;10.43;;;;;;;23.62;79.45;99314.94;5034349;28;20024;-45
2022/09/02 04:38:58;;;;;;;14.93;10.82;;;;;;;23.34;80.92;99318.72;5049699;28;20025;-44
2022/09/02 04:41:27;;;;;;;11.18;8.10;;;;;;;23.41;80.62;99327.28;5050075;28;20104;-45
2022/09/02 04:43:55;;;;;;;12.30;8.05;;;;;;;23.52;79.47;99330.66;5049914;28;20029;-45
2022/09/02 04:46:20;;;;;;;15.77;7.78;;;;;;;23.54;79.74;99317.56;5048527;28;20037;-44
2022/09/02 04:48:46;;;;;;;14.25;8.20;;;;;;;23.61;79.44;99329.66;5048336;28;20094;-44
2022/09/02 04:51:15;;;;;;;10.68;8.10;;;;;;;23.43;79.79;99317.75;5048548;28;20025;-45
2022/09/02 04:53:41;;;;;;;12.35;9.18;;;;;;;23.51;79.68;99326.31;5048517;28;20025;-43
2022/09/02 04:56:10;;;;;;;17.00;13.30;;;;;;;23.47;79.76;99325.28;5048010;28;20130;-43
2022/09/02 04:58:36;;;;;;;16.87;8.90;;;;;;;23.76;78.39;99331.28;5048150;28;20017;-43
2022/09/02 05:01:14;;;;;;;12.02;8.48;;;;;;;23.73;78.50;99328.34;5048001;28;20346;-44
2022/09/02 05:03:40;;;;;;;14.40;8.40;;;;;;;23.67;78.50;99335.78;5048097;28;20062;-44
2022/09/02 05:06:08;;;;;;;10.10;8.10;;;;;;;23.50;79.47;99330.94;5048470;28;20473;-46
2022/09/02 05:08:35;;;;;;;11.50;8.43;;;;;;;23.64;78.74;99328.22;5049536;28;20099;-43
2022/09/02 05:11:07;;;;;;;14.73;9.27;;;;;;;24.15;76.09;99329.19;5049106;28;20025;-47
2022/09/02 05:13:34;;;;;;;10.95;7.65;;;;;;;23.93;76.85;99336.16;5049822;28;20021;-44
2022/09/02 05:15:59;;;;;;;13.00;8.02;;;;;;;23.33;78.78;99314.41;5049114;28;20029;-45
2022/09/02 05:18:26;;;;;;;13.07;8.35;;;;;;;23.55;78.71;99339.00;5048706;28;20052;-44
2022/09/02 05:20:51;;;;;;;14.38;7.70;;;;;;;23.50;78.86;99328.22;5049064;28;20029;-46
2022/09/02 05:23:17;;;;;;;12.85;8.13;;;;;;;23.58;78.88;99329.44;5049238;28;20033;-45
2022/09/02 05:25:43;;;;;;;10.20;8.27;;;;;;;23.35;79.88;99326.56;5048852;28;20036;-46
2022/09/02 05:28:10;;;;;;;11.30;8.55;;;;;;;23.69;78.43;99328.16;5048427;28;20116;-44
2022/09/02 05:30:38;;;;;;;12.65;8.48;;;;;;;23.69;78.37;99322.72;5049033;28;20029;-44
2022/09/02 05:33:04;;;;;;;15.70;9.13;;;;;;;23.95;77.36;99322.22;5048433;28;20100;-44
2022/09/02 05:35:30;;;;;;;16.40;9.15;;;;;;;23.80;77.92;99321.44;5049129;28;20039;-44
2022/09/02 05:37:56;;;;;;;13.13;8.70;;;;;;;23.70;78.20;99339.81;5049080;28;20025;-43
2022/09/02 05:40:22;;;;;;;16.10;9.32;;;;;;;23.56;78.85;99323.50;5048898;28;20119;-44
2022/09/02 05:42:47;;;;;;;15.90;8.70;;;;;;;23.93;77.22;99329.88;5047852;28;20163;-44
2022/09/02 05:45:13;;;;;;;14.48;9.23;;;;;;;24.00;77.25;99324.84;5049424;28;20025;-42
2022/09/02 05:47:38;;;;;;;13.20;9.25;;;;;;;23.75;78.40;99318.00;5032546;28;20028;-46
2022/09/02 05:50:05;;;;;;;11.00;9.10;;;;;;;23.64;79.12;99320.09;5049213;28;20081;-44
2022/09/02 05:52:31;;;;;;;16.67;9.25;;;;;;;23.77;78.63;99315.78;5048992;28;20734;-44
2022/09/02 05:54:56;;;;;;;13.93;8.70;;;;;;;23.93;77.91;99343.47;5049012;28;20025;-44
2022/09/02 05:57:23;;;;;;;14.32;9.48;;;;;;;24.09;76.66;99328.47;5049305;28;20025;-44
2022/09/02 05:59:54;;;;;;;14.38;9.43;;;;;;;24.22;76.57;99329.59;5049424;28;20156;-46
2022/09/02 06:02:21;;;;;;;14.25;9.50;;;;;;;24.59;75.07;99336.66;5048931;28;20136;-45
2022/09/02 06:04:48;;;;;;;16.08;9.13;;;;;;;24.72;74.28;99329.59;5048623;28;20449;-44
2022/09/02 06:07:16;;;;;;;14.00;9.60;;;;;;;24.92;72.84;99322.03;5049120;28;20070;-44
2022/09/02 06:09:43;;;;;;;12.68;9.43;;;;;;;25.03;72.18;99325.34;5048975;28;20032;-44
2022/09/02 06:12:10;;;;;;;16.48;9.23;;;;;;;24.88;72.80;99324.56;5048997;28;20048;-43
2022/09/02 06:14:36;;;;;;;12.68;9.05;;;;;;;24.69;73.42;99319.31;5048458;28;20025;-44
2022/09/02 06:17:03;;;;;;;15.63;9.07;;;;;;;24.86;73.13;99328.72;5048092;28;20442;-45
2022/09/02 06:19:31;;;;;;;13.35;9.60;;;;;;;24.73;73.72;99330.38;5048572;28;20047;-46
2022/09/02 06:21:58;;;;;;;10.35;8.63;;;;;;;24.86;72.66;99343.13;5048500;28;20033;-43
2022/09/02 06:24:24;;;;;;;13.98;9.10;;;;;;;25.09;72.08;99326.81;5048817;28;20025;-44
2022/09/02 06:26:49;;;;;;;12.85;8.27;;;;;;;25.22;72.01;99328.66;5048138;28;20111;-43
2022/09/02 06:29:15;;;;;;;10.68;8.18;;;;;;;25.50;69.90;99328.53;5050096;28;20112;-45
2022/09/02 06:31:42;;;;;;;11.20;8.35;;;;;;;25.29;71.01;99333.69;5052393;28;20465;-44
2022/09/02 06:34:12;;;;;;;11.32;8.68;;;;;;;25.34;70.35;99331.66;5052864;28;20062;-45
2022/09/02 06:36:37;;;;;;;11.30;8.30;;;;;;;25.30;70.80;99338.84;5055237;28;20028;-44
2022/09/02 06:39:03;;;;;;;14.75;8.88;;;;;;;25.06;71.67;99327.44;5051646;28;20033;-43
2022/09/02 06:41:32;;;;;;;12.70;8.63;;;;;;;25.41;70.76;99344.81;5051850;28;20035;-42
2022/09/02 06:44:02;;;;;;;13.82;8.60;;;;;;;25.27;71.05;99339.47;5051866;28;20020;-44
2022/09/02 06:46:31;;;;;;;10.23;8.40;;;;;;;25.19;71.11;99345.63;5051339;28;20061;-42
2022/09/02 06:48:57;;;;;;;12.73;7.70;;;;;;;25.04;72.09;99338.63;5051284;28;20025;-44
2022/09/02 06:51:45;;;;;;;14.30;8.38;;;;;;;25.17;71.21;99345.94;5051436;28;20035;-46
2022/09/02 06:54:14;;;;;;;10.88;7.88;;;;;;;24.80;73.08;99344.38;5051119;28;20127;-46
2022/09/02 06:56:40;;;;;;;12.80;7.70;;;;;;;24.95;72.09;99335.03;5051472;28;20029;-43
2022/09/02 06:59:06;;;;;;;15.25;8.10;;;;;;;25.48;70.14;99347.91;5049070;28;20120;-44
2022/09/02 07:01:32;;;;;;;9.82;7.05;;;;;;;25.21;70.78;99337.94;5050382;28;20408;-44
2022/09/02 07:06:46;;;;;;;11.15;7.40;;;;;;;24.69;72.85;99362.03;5050671;28;20182;-44
2022/09/02 07:09:15;;;;;;;9.27;7.45;;;;;;;24.97;72.04;99346.41;5049983;28;20121;-45
2022/09/02 07:11:40;;;;;;;15.40;7.73;;;;;;;25.36;70.78;99351.22;5050973;28;20037;-44
2022/09/02 07:14:06;;;;;;;15.88;7.80;;;;;;;25.41;69.95;99352.97;5050778;28;20048;-45
2022/09/02 07:16:41;;;;;;;13.38;8.15;;;;;;;25.57;69.72;99356.13;5050806;28;20123;-44
2022/09/02 07:19:06;;;;;;;10.35;7.63;;;;;;;25.74;69.30;99341.75;5050717;28;20029;-44
2022/09/02 07:21:31;;;;;;;10.32;7.57;;;;;;;25.98;68.77;99352.31;5050822;28;20051;-43
2022/09/02 07:23:58;;;;;;;10.60;7.30;;;;;;;26.31;67.04;99350.00;5050871;28;20031;-44
2022/09/02 07:26:24;;;;;;;10.93;7.28;;;;;;;26.28;67.13;99352.56;5051747;28;20021;-48
2022/09/02 07:28:50;;;;;;;14.40;7.70;;;;;;;26.48;66.30;99354.69;5051608;28;20021;-45
2022/09/02 07:31:16;;;;;;;12.05;7.35;;;;;;;26.54;66.00;99363.53;5052052;28;20389;-47
2022/09/02 07:33:43;;;;;;;10.50;7.65;;;;;;;26.60;65.59;99365.00;5051814;28;20025;-43
2022/09/02 07:36:10;;;;;;;11.75;7.32;;;;;;;26.55;65.10;99367.84;5051490;28;20023;-44
2022/09/02 07:38:35;;;;;;;9.18;7.57;;;;;;;26.65;65.33;99366.75;5051411;28;20416;-43
2022/09/02 07:41:01;;;;;;;11.07;7.03;;;;;;;26.19;66.00;99347.09;5050644;28;20028;-42
2022/09/02 07:43:28;;;;;;;11.82;7.25;;;;;;;26.47;65.43;99364.00;5050313;28;20025;-44
2022/09/02 07:45:54;;;;;;;13.27;7.55;;;;;;;26.43;65.55;99365.75;5051201;28;20086;-43
2022/09/02 07:48:21;;;;;;;10.85;7.45;;;;;;;26.71;65.07;99369.03;5051317;28;20439;-44
2022/09/02 07:50:47;;;;;;;11.18;7.22;;;;;;;26.77;64.47;99355.22;5051301;28;20021;-46
2022/09/02 07:53:15;;;;;;;11.55;7.40;;;;;;;27.01;63.65;99360.97;5051572;28;20082;-47
2022/09/02 07:55:41;;;;;;;9.88;6.82;;;;;;;27.21;63.07;99364.19;5051809;28;20468;-45
2022/09/02 07:58:07;;;;;;;11.38;7.30;;;;;;;26.62;64.55;99368.22;5051316;28;20013;-45
2022/09/02 08:00:32;;;;;;;13.50;7.45;;;;;;;26.67;64.53;99370.78;5051283;28;20452;-45
2022/09/02 08:03:00;;;;;;;10.95;7.60;;;;;;;26.95;63.79;99364.22;5050037;28;20024;-44
2022/09/02 08:05:26;;;;;;;12.20;8.75;;;;;;;26.98;63.59;99379.94;5050341;28;20046;-46
2022/09/02 08:07:52;;;;;;;18.23;10.55;;;;;;;26.99;63.77;99378.81;5050787;28;20468;-44
2022/09/02 08:10:19;;;;;;;15.43;10.90;;;;;;;27.16;62.57;99367.09;5050223;28;20024;-44
2022/09/02 08:12:46;;;;;;;17.40;10.82;;;;;;;27.22;62.44;99366.56;5050518;28;20047;-44
2022/09/02 08:15:12;;;;;;;12.23;9.65;;;;;;;26.69;64.02;99368.56;5050343;28;20088;-43
2022/09/02 08:17:39;;;;;;;15.63;9.60;;;;;;;27.12;62.67;99358.72;5050049;28;20081;-45
2022/09/02 08:20:07;;;;;;;11.82;8.73;;;;;;;27.30;61.64;99357.63;5051684;28;20031;-46
2022/09/02 08:22:34;;;;;;;10.82;8.32;;;;;;;27.21;62.07;99356.78;5050914;28;20036;-45
2022/09/02 08:25:00;;;;;;;13.65;9.30;;;;;;;27.65;61.10;99354.78;5050323;28;20025;-44
2022/09/02 08:27:26;;;;;;;13.15;9.32;;;;;;;28.00;59.44;99351.13;5050361;28;20024;-44
2022/09/02 08:29:52;;;;;;;10.52;8.55;;;;;;;27.97;59.62;99346.31;5050699;28;20032;-46
2022/09/02 08:32:17;;;;;;;11.35;8.15;;;;;;;27.94;59.44;99342.31;5050170;28;20408;-45
2022/09/02 08:34:43;;;;;;;11.02;7.80;;;;;;;28.39;58.41;99346.41;5049795;28;20108;-48
2022/09/02 08:37:08;;;;;;;16.92;8.45;;;;;;;28.43;57.87;99344.59;5049804;28;20074;-47
2022/09/02 08:39:35;;;;;;;13.40;9.15;;;;;;;28.37;58.02;99334.97;5050382;28;20086;-47
2022/09/02 08:42:11;;;;;;;14.40;11.05;;;;;;;28.00;58.80;99330.03;5050595;28;20470;-45
2022/09/02 08:44:38;;;;;;;19.38;10.35;;;;;;;27.56;60.12;99323.16;5050389;28;20033;-45
2022/09/02 08:47:11;;;;;;;14.32;8.57;;;;;;;27.68;59.76;99328.72;5050457;28;20029;-44
2022/09/02 08:50:02;;;;;;;15.88;10.75;;;;;;;27.91;58.91;99323.03;5049828;28;20021;-44
2022/09/02 08:52:58;;;;;;;20.77;13.50;;;;;;;27.68;59.78;99325.97;5041915;28;20040;-44
2022/09/02 08:55:31;;;;;;;21.15;11.05;;;;;;;27.37;59.80;99335.25;5043128;28;20037;-45
2022/09/02 08:57:57;;;;;;;11.68;8.90;;;;;;;27.48;59.92;99327.53;5048018;28;20027;-43
2022/09/02 09:00:26;;;;;;;14.23;8.27;;;;;;;27.12;61.63;99323.22;5049528;28;20037;-43
2022/09/02 09:03:03;;;;;;;14.80;8.23;;;;;;;27.10;62.13;99336.41;5048858;28;20116;-43
2022/09/02 09:05:52;;;;;;;11.77;8.20;;;;;;;26.92;62.69;99330.97;5049802;28;20051;-46
2022/09/02 09:08:39;;;;;;;12.55;7.40;;;;;;;26.95;62.98;99337.72;5050394;28;20039;-46
2022/09/02 09:11:21;;;;;;;10.65;7.47;;;;;;;27.08;62.50;99333.19;5050326;28;20166;-44
2022/09/02 09:14:08;;;;;;;11.63;7.55;;;;;;;27.02;63.21;99327.09;5050616;28;20025;-45
2022/09/02 09:16:43;;;;;;;14.60;8.80;;;;;;;27.26;65.55;99332.09;5049994;28;20424;-46
2022/09/02 09:19:40;;;;;;;11.65;9.60;;;;;;;27.02;67.69;99323.59;5050679;28;20036;-44
2022/09/02 09:22:06;;;;;;;16.13;11.25;;;;;;;26.92;67.57;99332.88;5035324;28;20041;-44
2022/09/02 09:24:44;;;;;;;18.90;12.65;;;;;;;27.02;68.23;99353.63;5049812;28;20047;-45
2022/09/02 09:27:16;;;;;;;19.33;12.23;;;;;;;26.56;69.70;99360.47;5049173;28;20051;-49
2022/09/02 09:29:41;;;;;;;16.88;13.27;;;;;;;26.05;72.31;99366.28;5050379;28;20149;-47
2022/09/02 09:32:24;;;;;;;21.20;13.75;;;;;;;25.75;74.43;99355.06;5050205;28;20516;-46
2022/09/02 09:34:52;;;;;;;21.80;14.48;;;;;;;25.71;75.05;99348.66;5049858;28;20446;-50
2022/09/02 09:37:33;;;;;;;25.17;16.25;;;;;;;25.63;76.08;99324.91;5049997;28;20024;-48
2022/09/02 09:39:59;;;;;;;25.42;16.00;;;;;;;25.66;76.15;99334.38;5050294;28;20033;-50
2022/09/02 09:42:36;;;;;;;27.83;15.57;;;;;;;25.51;77.20;99341.00;5050001;28;20055;-49
2022/09/02 09:45:32;;;;;;;19.65;14.18;;;;;;;25.46;76.90;99336.53;5050084;28;20017;-46
2022/09/02 09:48:50;;;;;;;22.80;14.23;;;;;;;25.61;76.84;99332.59;5041427;28;20170;-46
2022/09/02 09:51:16;;;;;;;17.77;11.93;;;;;;;26.08;71.29;99332.97;5049481;28;20489;-46
2022/09/02 09:53:42;;;;;;;18.52;12.30;;;;;;;26.02;71.02;99336.13;5049598;28;20139;-47
2022/09/02 09:56:13;;;;;;;14.63;9.93;;;;;;;26.28;69.01;99334.28;5049660;28;20084;-47
2022/09/02 09:58:38;;;;;;;13.65;8.50;;;;;;;26.51;66.17;99340.41;5049752;28;20044;-45
2022/09/02 10:01:30;;;;;;;14.57;8.43;;;;;;;26.63;63.58;99339.78;5049653;28;20496;-45
2022/09/02 10:04:06;;;;;;;12.65;8.43;;;;;;;26.62;64.04;99335.47;5052552;28;20027;-45
2022/09/02 10:06:32;;;;;;;13.23;7.88;;;;;;;26.63;63.52;99320.69;5053797;28;20035;-42
2022/09/02 10:09:02;;;;;;;10.13;7.82;;;;;;;26.66;63.72;99316.53;5053307;28;20017;-46
2022/09/02 10:11:30;;;;;;;12.27;8.55;;;;;;;26.74;63.85;99321.19;5053355;28;20034;-45
2022/09/02 10:14:01;;;;;;;13.48;8.38;;;;;;;26.77;64.02;99334.19;5053565;28;20051;-44
2022/09/02 10:16:35;;;;;;;12.52;8.35;;;;;;;26.85;64.46;99347.03;5053144;28;20033;-44
2022/09/02 10:19:13;;;;;;;14.10;8.00;;;;;;;26.79;64.47;99352.97;5053508;28;20021;-44
2022/09/02 10:21:41;;;;;;;13.80;8.93;;;;;;;26.57;65.63;99368.34;5052966;28;20020;-45
2022/09/02 10:24:33;;;;;;;13.77;9.17;;;;;;;25.82;67.53;99368.25;5053115;28;20477;-45
2022/09/02 10:27:02;;;;;;;11.38;8.70;;;;;;;25.62;68.96;99371.53;5053132;28;20077;-43
2022/09/02 10:29:39;;;;;;;14.43;9.15;;;;;;;25.88;68.21;99358.03;5052733;28;20025;-45
2022/09/02 10:32:24;;;;;;;13.23;9.02;;;;;;;26.11;67.37;99358.78;5053234;28;20029;-46
2022/09/02 10:34:56;;;;;;;12.77;9.15;;;;;;;26.35;66.98;99363.81;5053191;28;20081;-44
2022/09/02 10:37:31;;;;;;;15.32;8.73;;;;;;;26.44;67.05;99364.63;5052472;28;20107;-48
2022/09/02 10:40:02;;;;;;;12.60;8.80;;;;;;;26.52;67.17;99352.94;5052625;28;20457;-47
2022/09/02 10:42:50;;;;;;;13.77;8.75;;;;;;;26.51;65.56;99347.78;5052152;28;20100;-45
2022/09/02 10:45:44;;;;;;;11.35;8.10;;;;;;;26.61;64.81;99354.88;5052777;28;20037;-47
2022/09/02 10:48:33;;;;;;;12.93;8.80;;;;;;;26.72;65.33;99359.69;5053064;28;20029;-44
2022/09/02 10:51:13;;;;;;;12.65;9.40;;;;;;;26.67;64.90;99370.78;5032976;28;20064;-45
2022/09/02 10:53:47;;;;;;;11.73;10.45;;;;;;;26.40;66.13;99374.56;5032747;28;20528;-45
2022/09/02 10:56:23;;;;;;;13.02;10.45;;;;;;;26.32;66.96;99367.16;5041346;28;20025;-44
2022/09/02 10:59:19;;;;;;;11.68;9.38;;;;;;;26.33;65.74;99357.84;5052359;28;20025;-47
2022/09/02 11:02:24;;;;;;;13.15;8.73;;;;;;;26.50;65.82;99351.63;5051773;28;20448;-45
2022/09/02 11:04:58;;;;;;;12.00;10.18;;;;;;;26.72;66.82;99348.78;5040065;28;20111;-47
2022/09/02 11:07:32;;;;;;;12.85;9.73;;;;;;;26.81;67.42;99353.47;5052340;28;20024;-43
2022/09/02 11:10:11;;;;;;;16.25;10.02;;;;;;;26.88;66.64;99365.50;5052322;28;20035;-45
2022/09/02 11:12:51;;;;;;;14.38;10.65;;;;;;;26.52;66.09;99371.19;5052786;28;20064;-44
2022/09/02 11:15:22;;;;;;;;;;;;;;;26.19;67.25;99370.81;5051995;28;20124;-45
2022/09/02 11:18:12;;;;;;;17.15;10.73;;;;;;;25.93;68.33;99374.25;5051759;28;19921;-46
2022/09/02 11:20:58;;;;;;;12.77;10.50;;;;;;;25.97;66.42;99380.72;5051632;28;20048;-46
2022/09/02 11:23:45;;;;;;;12.68;10.13;;;;;;;26.22;66.14;99389.28;5052088;28;20024;-47
2022/09/02 11:26:26;;;;;;;13.75;11.65;;;;;;;26.40;66.15;99390.13;5051447;28;20033;-44
2022/09/02 11:29:00;;;;;;;13.63;12.02;;;;;;;26.33;66.45;99382.41;5051305;28;20378;-45
2022/09/02 11:31:37;;;;;;;12.10;10.57;;;;;;;26.40;65.52;99368.31;5051409;28;20032;-44
2022/09/02 11:34:35;;;;;;;15.10;10.38;;;;;;;26.51;66.07;99355.97;5051610;28;20025;-43
2022/09/02 11:37:04;;;;;;;18.88;11.98;;;;;;;26.58;67.39;99356.31;5051603;28;20029;-44
2022/09/02 11:39:54;;;;;;;14.18;12.32;;;;;;;26.71;67.52;99362.75;5051843;28;20036;-43